createdAt,value
2018-06-11T00:00:09.093Z,5.47
2018-06-11T00:02:40.848Z,6.40
2018-06-11T00:05:12.219Z,5.80
2018-06-11T00:07:42.888Z,5.22
2018-06-11T00:10:13.643Z,5.53
2018-06-11T00:12:44.337Z,5.67
2018-06-11T00:15:15.193Z,6.70
2018-06-11T00:17:45.922Z,6.20
2018-06-11T00:20:16.985Z,5.53
2018-06-11T00:22:47.933Z,5.67
2018-06-11T00:25:18.961Z,5.93
2018-06-11T00:27:49.816Z,6.10
2018-06-11T00:30:20.928Z,7.00
2018-06-11T00:32:52.000Z,8.20
2018-06-11T00:35:23.037Z,8.87
2018-06-11T00:37:54.088Z,8.83
2018-06-11T00:40:25.008Z,8.27
2018-06-11T00:42:55.516Z,7.87
2018-06-11T00:45:26.154Z,8.90
2018-06-11T00:47:57.669Z,8.23
2018-06-11T00:50:28.787Z,7.97
2018-06-11T00:52:59.770Z,7.73
2018-06-11T00:55:48.225Z,8.70
2018-06-11T00:58:18.965Z,12.97
2018-06-11T01:00:49.724Z,8.95
2018-06-11T01:03:20.483Z,7.40
2018-06-11T01:05:51.219Z,8.37
2018-06-11T01:08:21.922Z,20.73
2018-06-11T01:10:52.626Z,14.53
2018-06-11T01:13:23.340Z,9.07
2018-06-11T01:15:54.154Z,10.87
2018-06-11T01:18:25.080Z,12.70
2018-06-11T01:20:55.822Z,12.00
2018-06-11T01:23:26.493Z,11.10
2018-06-11T01:25:57.261Z,10.27
2018-06-11T01:28:27.993Z,8.60
2018-06-11T01:30:58.775Z,8.00
2018-06-11T01:33:29.497Z,8.93
2018-06-11T01:36:00.213Z,7.37
2018-06-11T01:38:30.975Z,7.07
2018-06-11T01:41:01.693Z,8.20
2018-06-11T01:43:33.650Z,7.97
2018-06-11T01:46:05.407Z,7.80
2018-06-11T01:48:36.104Z,8.37
2018-06-11T01:51:07.054Z,6.87
2018-06-11T01:53:37.841Z,7.17
2018-06-11T01:56:08.619Z,6.67
2018-06-11T01:58:39.376Z,6.67
2018-06-11T02:01:10.077Z,7.30
2018-06-11T02:03:40.774Z,7.17
2018-06-11T02:06:11.525Z,7.33
2018-06-11T02:08:42.234Z,8.33
2018-06-11T02:11:12.928Z,6.10
2018-06-11T02:13:43.475Z,6.90
2018-06-11T02:16:14.512Z,7.37
2018-06-11T02:18:45.437Z,7.75
2018-06-11T02:21:16.032Z,7.53
2018-06-11T02:23:46.981Z,7.40
2018-06-11T02:26:18.227Z,7.60
2018-06-11T02:28:49.210Z,7.33
2018-06-11T02:31:20.165Z,7.40
2018-06-11T02:33:50.958Z,7.78
2018-06-11T02:36:22.252Z,8.30
2018-06-11T02:38:53.230Z,6.90
2018-06-11T02:41:24.460Z,7.90
2018-06-11T02:43:55.834Z,8.00
2018-06-11T02:46:27.154Z,8.20
2018-06-11T02:48:57.944Z,9.10
2018-06-11T02:51:28.725Z,11.37
2018-06-11T02:53:59.483Z,10.63
2018-06-11T02:56:31.195Z,8.70
2018-06-11T02:59:01.937Z,8.80
2018-06-11T03:01:33.731Z,7.67
2018-06-11T03:04:04.458Z,8.10
2018-06-11T03:06:35.259Z,6.90
2018-06-11T03:09:07.613Z,7.83
2018-06-11T03:11:38.325Z,7.30
2018-06-11T03:14:08.646Z,8.10
2018-06-11T03:16:39.374Z,8.03
2018-06-11T03:19:10.064Z,8.13
2018-06-11T03:21:40.787Z,7.43
2018-06-11T03:24:11.481Z,7.70
2018-06-11T03:26:42.262Z,8.23
2018-06-11T03:29:13.055Z,7.80
2018-06-11T03:31:44.224Z,8.95
2018-06-11T03:34:15.009Z,7.50
2018-06-11T03:36:45.798Z,8.48
2018-06-11T03:39:17.285Z,7.00
2018-06-11T03:41:48.086Z,6.80
2018-06-11T03:44:18.768Z,6.10
2018-06-11T03:46:49.500Z,5.80
2018-06-11T03:49:20.237Z,6.30
2018-06-11T03:51:50.985Z,6.53
2018-06-11T03:54:21.729Z,6.13
2018-06-11T03:56:52.502Z,5.90
2018-06-11T03:59:23.261Z,6.27
2018-06-11T04:01:53.965Z,5.03
2018-06-11T04:04:24.662Z,5.60
2018-06-11T04:06:55.352Z,5.80
2018-06-11T04:09:26.337Z,5.70
2018-06-11T04:11:57.033Z,5.47
2018-06-11T04:14:27.755Z,5.67
2018-06-11T04:16:58.484Z,6.00
2018-06-11T04:19:29.250Z,6.07
2018-06-11T04:22:00.096Z,6.83
2018-06-11T04:24:30.811Z,7.10
2018-06-11T04:27:01.549Z,6.80
2018-06-11T04:29:32.301Z,7.20
2018-06-11T04:32:03.070Z,6.67
2018-06-11T04:34:34.019Z,6.80
2018-06-11T04:37:04.823Z,7.23
2018-06-11T04:39:35.877Z,7.20
2018-06-11T04:42:06.717Z,6.27
2018-06-11T04:44:37.413Z,7.20
2018-06-11T04:47:09.076Z,6.77
2018-06-11T04:49:39.807Z,6.58
2018-06-11T04:52:10.615Z,6.13
2018-06-11T04:54:41.662Z,6.00
2018-06-11T04:57:13.398Z,6.20
2018-06-11T04:59:44.123Z,5.70
2018-06-11T05:02:14.865Z,5.63
2018-06-11T05:04:45.912Z,5.80
2018-06-11T05:07:17.653Z,7.23
2018-06-11T05:09:48.377Z,5.53
2018-06-11T05:12:19.118Z,6.10
2018-06-11T05:14:49.888Z,4.47
2018-06-11T05:17:20.826Z,5.63
2018-06-11T05:19:51.681Z,5.17
2018-06-11T05:22:22.044Z,6.07
2018-06-11T05:24:52.798Z,6.90
2018-06-11T05:27:23.528Z,5.33
2018-06-11T05:29:54.314Z,5.70
2018-06-11T05:32:25.164Z,5.40
2018-06-11T05:34:56.038Z,4.93
2018-06-11T05:37:26.781Z,5.37
2018-06-11T05:39:57.663Z,5.53
2018-06-11T05:42:28.389Z,6.33
2018-06-11T05:44:59.463Z,5.47
2018-06-11T05:47:30.413Z,7.90
2018-06-11T05:52:26.458Z,7.53
2018-06-11T05:54:57.312Z,6.47
2018-06-11T05:57:28.029Z,5.70
2018-06-11T05:59:58.914Z,5.93
2018-06-11T06:02:29.648Z,6.50
2018-06-11T06:05:00.409Z,6.30
2018-06-11T06:07:31.202Z,6.60
2018-06-11T06:10:02.751Z,6.87
2018-06-11T06:12:34.257Z,7.00
2018-06-11T06:15:05.187Z,7.23
2018-06-11T06:17:35.968Z,6.70
2018-06-11T06:20:07.725Z,7.40
2018-06-11T06:22:38.694Z,7.50
2018-06-11T06:25:09.524Z,7.37
2018-06-11T06:27:40.249Z,7.00
2018-06-11T06:30:10.953Z,8.30
2018-06-11T06:32:41.758Z,7.60
2018-06-11T06:35:12.482Z,6.90
2018-06-11T06:37:42.843Z,7.20
2018-06-11T06:40:13.474Z,7.20
2018-06-11T06:42:44.216Z,11.12
2018-06-11T06:45:14.967Z,10.03
2018-06-11T06:47:46.760Z,8.28
2018-06-11T06:50:17.521Z,7.20
2018-06-11T06:52:48.262Z,6.85
2018-06-11T06:55:18.989Z,7.57
2018-06-11T06:57:49.360Z,6.70
2018-06-11T07:00:20.031Z,8.17
2018-06-11T07:02:50.771Z,8.28
2018-06-11T07:05:21.464Z,8.60
2018-06-11T07:07:52.234Z,7.97
2018-06-11T07:10:22.985Z,9.30
2018-06-11T07:12:54.345Z,7.90
2018-06-11T07:15:25.060Z,9.70
2018-06-11T07:17:55.806Z,8.67
2018-06-11T07:20:26.221Z,8.27
2018-06-11T07:22:57.667Z,9.10
2018-06-11T07:25:29.545Z,9.50
2018-06-11T07:28:01.790Z,9.33
2018-06-11T07:30:33.679Z,9.07
2018-06-11T07:33:04.634Z,9.40
2018-06-11T07:35:35.720Z,9.23
2018-06-11T07:38:06.995Z,9.47
2018-06-11T07:40:38.014Z,8.40
2018-06-11T07:43:09.136Z,9.70
2018-06-11T07:45:40.253Z,8.75
2018-06-11T07:48:11.352Z,9.53
2018-06-11T07:50:42.424Z,9.10
2018-06-11T07:53:13.658Z,9.10
2018-06-11T07:55:44.824Z,10.43
2018-06-11T07:58:16.123Z,9.83
2018-06-11T08:00:47.163Z,10.53
2018-06-11T08:03:18.242Z,9.60
2018-06-11T08:05:49.366Z,11.03
2018-06-11T08:08:20.598Z,11.00
2018-06-11T08:10:51.640Z,11.08
2018-06-11T08:13:23.292Z,11.30
2018-06-11T08:15:54.259Z,10.57
2018-06-11T08:18:25.283Z,11.00
2018-06-11T08:20:56.325Z,12.47
2018-06-11T08:23:27.218Z,13.07
2018-06-11T08:25:58.327Z,11.43
2018-06-11T08:28:29.329Z,11.43
2018-06-11T08:31:00.392Z,10.30
2018-06-11T08:33:31.432Z,14.00
2018-06-11T08:36:02.444Z,11.57
2018-06-11T08:38:34.226Z,11.23
2018-06-11T08:41:05.402Z,11.67
2018-06-11T08:43:36.373Z,11.97
2018-06-11T08:46:07.476Z,12.60
2018-06-11T08:48:38.528Z,11.97
2018-06-11T08:51:09.495Z,11.63
2018-06-11T08:53:40.581Z,10.75
2018-06-11T08:56:11.511Z,12.17
2018-06-11T08:58:42.569Z,10.73
2018-06-11T09:01:14.394Z,11.50
2018-06-11T09:03:45.415Z,12.53
2018-06-11T09:06:16.497Z,11.17
2018-06-11T09:08:47.497Z,11.90
2018-06-11T09:11:18.552Z,12.00
2018-06-11T09:13:50.893Z,12.93
2018-06-11T09:16:21.818Z,11.40
2018-06-11T09:18:52.764Z,11.47
2018-06-11T09:21:23.781Z,10.60
2018-06-11T09:23:54.847Z,10.90
2018-06-11T09:26:25.813Z,12.20
2018-06-11T09:28:57.210Z,10.13
2018-06-11T09:31:28.458Z,11.00
2018-06-11T09:33:59.509Z,10.60
2018-06-11T09:36:30.569Z,11.73
2018-06-11T09:39:01.712Z,11.77
2018-06-11T09:41:32.764Z,13.97
2018-06-11T09:44:03.940Z,11.70
2018-06-11T09:46:35.031Z,11.30
2018-06-11T09:49:06.231Z,11.57
2018-06-11T09:51:37.927Z,10.50
2018-06-11T09:54:09.153Z,11.40
2018-06-11T09:56:40.294Z,9.35
2018-06-11T09:59:12.487Z,10.50
2018-06-11T10:01:43.540Z,10.50
2018-06-11T10:04:14.673Z,9.27
2018-06-11T10:06:45.843Z,10.55
2018-06-11T10:09:16.950Z,12.27
2018-06-11T10:11:47.819Z,10.95
2018-06-11T10:14:19.005Z,10.43
2018-06-11T10:16:50.078Z,11.20
2018-06-11T10:19:21.388Z,11.10
2018-06-11T10:21:52.288Z,18.32
2018-06-11T10:24:23.221Z,11.30
2018-06-11T10:26:54.270Z,10.17
2018-06-11T10:29:25.207Z,9.37
2018-06-11T10:31:56.201Z,16.00
2018-06-11T10:34:29.398Z,12.90
2018-06-11T10:37:00.445Z,14.10
2018-06-11T10:39:31.463Z,13.60
2018-06-11T10:42:02.460Z,11.00
2018-06-11T10:44:33.622Z,10.27
2018-06-11T10:47:04.507Z,10.90
2018-06-11T10:49:35.662Z,11.90
2018-06-11T10:52:06.589Z,11.70
2018-06-11T10:54:38.789Z,10.43
2018-06-11T10:57:09.797Z,11.47
2018-06-11T10:59:41.256Z,12.00
2018-06-11T11:02:12.184Z,11.60
2018-06-11T11:04:42.821Z,11.80
2018-06-11T11:07:13.689Z,11.03
2018-06-11T11:09:44.697Z,11.73
2018-06-11T11:12:15.806Z,11.60
2018-06-11T11:14:47.976Z,9.73
2018-06-11T11:17:19.085Z,10.47
2018-06-11T11:19:53.803Z,11.38
2018-06-11T11:22:24.964Z,11.87
2018-06-11T11:24:56.431Z,11.10
2018-06-11T11:27:27.421Z,10.23
2018-06-11T11:29:58.153Z,11.17
2018-06-11T11:32:28.965Z,10.23
2018-06-11T11:35:00.059Z,10.60
2018-06-11T11:37:31.017Z,10.47
2018-06-11T11:40:02.066Z,10.73
2018-06-11T11:42:33.127Z,10.07
2018-06-11T11:45:04.476Z,10.97
2018-06-11T11:47:35.506Z,9.85
2018-06-11T11:50:06.620Z,9.57
2018-06-11T11:52:37.768Z,9.23
2018-06-11T11:55:09.950Z,10.27
2018-06-11T11:57:41.000Z,11.30
2018-06-11T12:00:12.303Z,10.53
2018-06-11T12:02:44.208Z,8.58
2018-06-11T12:05:15.379Z,9.17
2018-06-11T12:07:46.522Z,8.73
2018-06-11T12:10:17.676Z,8.80
2018-06-11T12:12:48.967Z,9.20
2018-06-11T12:15:20.124Z,8.43
2018-06-11T12:17:51.198Z,9.43
2018-06-11T12:20:22.363Z,8.57
2018-06-11T12:22:53.312Z,9.40
2018-06-11T12:25:25.090Z,8.57
2018-06-11T12:27:56.111Z,7.83
2018-06-11T12:30:27.378Z,8.20
2018-06-11T12:32:58.467Z,9.00
2018-06-11T12:35:29.647Z,8.50
2018-06-11T12:38:01.973Z,8.63
2018-06-11T12:40:33.240Z,8.73
2018-06-11T12:43:04.344Z,8.67
2018-06-11T12:45:35.366Z,8.83
2018-06-11T12:48:06.637Z,8.60
2018-06-11T12:50:37.758Z,7.72
2018-06-11T12:53:08.780Z,8.77
2018-06-11T12:55:40.405Z,9.23
2018-06-11T12:58:12.115Z,8.03
2018-06-11T13:00:42.822Z,8.28
2018-06-11T13:03:14.405Z,8.45
2018-06-11T13:05:45.571Z,9.50
2018-06-11T13:08:16.678Z,8.43
2018-06-11T13:10:47.615Z,8.53
2018-06-11T13:13:18.703Z,9.60
2018-06-11T13:15:49.866Z,9.50
2018-06-11T13:18:21.053Z,9.30
2018-06-11T13:20:52.319Z,9.47
2018-06-11T13:23:23.558Z,9.10
2018-06-11T13:25:54.509Z,10.20
2018-06-11T13:28:25.663Z,10.17
2018-06-11T13:30:57.843Z,9.10
2018-06-11T13:33:29.309Z,9.80
2018-06-11T13:36:00.435Z,9.73
2018-06-11T13:38:31.547Z,10.40
2018-06-11T13:41:02.610Z,10.50
2018-06-11T13:43:33.627Z,10.40
2018-06-11T13:46:04.209Z,10.20
2018-06-11T13:48:35.599Z,12.13
2018-06-11T13:51:06.783Z,13.10
2018-06-11T13:53:38.099Z,10.50
2018-06-11T13:56:08.733Z,9.60
2018-06-11T13:58:39.640Z,8.83
2018-06-11T14:01:10.718Z,9.07
2018-06-11T14:03:41.762Z,9.58
2018-06-11T14:06:12.830Z,9.03
2018-06-11T14:08:43.742Z,9.70
2018-06-11T14:11:14.927Z,11.43
2018-06-11T14:13:45.858Z,10.43
2018-06-11T14:16:16.927Z,8.60
2018-06-11T14:18:47.948Z,8.40
2018-06-11T14:21:18.920Z,7.27
2018-06-11T14:23:50.034Z,6.65
2018-06-11T14:26:21.225Z,7.13
2018-06-11T14:28:52.509Z,6.90
2018-06-11T14:31:23.683Z,6.10
2018-06-11T14:33:54.785Z,6.23
2018-06-11T14:36:25.915Z,6.20
2018-06-11T14:38:57.116Z,6.80
2018-06-11T14:41:28.291Z,6.40
2018-06-11T14:43:59.425Z,6.43
2018-06-11T14:46:31.728Z,5.40
2018-06-11T14:49:03.058Z,5.80
2018-06-11T14:51:36.712Z,6.47
2018-06-11T14:54:07.609Z,6.90
2018-06-11T14:56:38.945Z,7.03
2018-06-11T14:59:10.984Z,6.10
2018-06-11T15:01:43.644Z,6.72
2018-06-11T15:04:14.815Z,6.80
2018-06-11T15:06:47.005Z,5.95
2018-06-11T15:09:18.173Z,5.73
2018-06-11T15:11:49.279Z,6.08
2018-06-11T15:14:20.219Z,7.00
2018-06-11T15:16:51.284Z,6.65
2018-06-11T15:19:21.967Z,7.20
2018-06-11T15:21:53.199Z,6.80
2018-06-11T15:24:24.195Z,6.43
2018-06-11T15:26:55.169Z,7.53
2018-06-11T15:29:26.199Z,7.30
2018-06-11T15:31:57.203Z,7.70
2018-06-11T15:34:28.255Z,7.03
2018-06-11T15:36:59.456Z,6.87
2018-06-11T15:39:30.552Z,6.90
2018-06-11T15:42:01.534Z,6.70
2018-06-11T15:44:32.589Z,6.93
2018-06-11T15:47:03.495Z,6.20
2018-06-11T15:49:35.492Z,6.07
2018-06-11T15:52:06.504Z,6.27
2018-06-11T15:54:37.333Z,5.30
2018-06-11T15:57:08.136Z,5.47
2018-06-11T15:59:39.108Z,4.80
2018-06-11T16:02:10.222Z,4.90
2018-06-11T16:04:41.449Z,4.95
2018-06-11T16:07:12.727Z,4.93
2018-06-11T16:09:43.958Z,4.60
2018-06-11T16:12:14.768Z,5.00
2018-06-11T16:14:46.169Z,5.12
2018-06-11T16:17:17.402Z,4.90
2018-06-11T16:19:48.338Z,4.78
2018-06-11T16:22:19.407Z,5.20
2018-06-11T16:24:50.645Z,4.72
2018-06-11T16:27:22.244Z,4.80
2018-06-11T16:29:53.244Z,5.03
2018-06-11T16:32:24.398Z,4.70
2018-06-11T16:34:55.552Z,5.30
2018-06-11T16:37:26.739Z,5.30
2018-06-11T16:39:57.972Z,5.93
2018-06-11T16:42:29.196Z,5.00
2018-06-11T16:45:01.112Z,4.93
2018-06-11T16:47:32.285Z,6.17
2018-06-11T16:50:03.550Z,5.70
2018-06-11T16:52:34.873Z,5.40
2018-06-11T16:55:06.104Z,4.80
2018-06-11T16:57:37.417Z,4.53
2018-06-11T17:00:08.477Z,4.50
2018-06-11T17:02:39.315Z,4.03
2018-06-11T17:05:10.536Z,5.73
2018-06-11T17:07:41.226Z,5.40
2018-06-11T17:10:12.160Z,4.33
2018-06-11T17:12:43.272Z,5.28
2018-06-11T17:15:14.456Z,5.10
2018-06-11T17:17:45.783Z,4.62
2018-06-11T17:20:16.903Z,5.00
2018-06-11T17:22:48.122Z,5.62
2018-06-11T17:25:19.239Z,4.60
2018-06-11T17:27:50.401Z,4.70
2018-06-11T17:30:21.588Z,4.87
2018-06-11T17:32:52.792Z,4.92
2018-06-11T17:35:23.947Z,4.80
2018-06-11T17:37:55.072Z,4.20
2018-06-11T17:40:26.077Z,4.73
2018-06-11T17:42:57.223Z,5.07
2018-06-11T17:45:28.504Z,4.40
2018-06-11T17:47:59.723Z,5.03
2018-06-11T17:50:30.248Z,4.93
2018-06-11T17:53:01.529Z,4.40
2018-06-11T17:55:32.523Z,4.50
2018-06-11T17:58:03.830Z,5.17
2018-06-11T18:00:36.356Z,5.43
2018-06-11T18:03:08.222Z,4.87
2018-06-11T18:05:39.324Z,5.30
2018-06-11T18:08:10.159Z,5.40
2018-06-11T18:10:41.182Z,5.15
2018-06-11T18:13:12.382Z,6.00
2018-06-11T18:15:44.038Z,4.78
2018-06-11T18:18:15.206Z,4.70
2018-06-11T18:20:46.333Z,4.83
2018-06-11T18:23:17.181Z,4.60
2018-06-11T18:25:49.110Z,4.70
2018-06-11T18:28:19.960Z,4.90
2018-06-11T18:30:50.946Z,5.20
2018-06-11T18:33:21.769Z,4.80
2018-06-11T18:35:52.721Z,4.83
2018-06-11T18:38:23.554Z,5.03
2018-06-11T18:40:54.381Z,4.90
2018-06-11T18:43:25.608Z,5.03
2018-06-11T18:45:56.455Z,4.80
2018-06-11T18:48:28.536Z,4.53
2018-06-11T18:51:00.383Z,4.43
2018-06-11T18:53:33.702Z,4.23
2018-06-11T18:56:04.596Z,4.83
2018-06-11T18:58:36.121Z,4.77
2018-06-11T19:01:06.984Z,4.60
2018-06-11T19:03:39.011Z,4.47
2018-06-11T19:06:09.629Z,5.13
2018-06-11T19:08:40.470Z,4.47
2018-06-11T19:11:11.311Z,4.87
2018-06-11T19:13:42.371Z,4.45
2018-06-11T19:16:14.453Z,4.00
2018-06-11T19:18:45.402Z,4.40
2018-06-11T19:21:16.409Z,3.87
2018-06-11T19:23:47.396Z,3.93
2018-06-11T19:26:18.337Z,4.10
2018-06-11T19:28:50.401Z,3.92
2018-06-11T19:31:21.431Z,4.28
2018-06-11T19:33:52.306Z,4.60
2018-06-11T19:36:23.238Z,5.10
2018-06-11T19:38:54.189Z,4.60
2018-06-11T19:41:25.671Z,3.53
2018-06-11T19:43:56.604Z,4.30
2018-06-11T19:46:28.247Z,4.30
2018-06-11T19:48:59.430Z,4.03
2018-06-11T19:51:30.325Z,4.73
2018-06-11T19:54:01.280Z,3.73
2018-06-11T19:56:32.256Z,3.30
2018-06-11T19:59:04.180Z,3.37
2018-06-11T20:01:36.408Z,3.00
2018-06-11T20:04:07.278Z,4.23
2018-06-11T20:06:38.331Z,3.70
2018-06-11T20:09:10.402Z,3.63
2018-06-11T20:11:40.909Z,3.40
2018-06-11T20:14:11.288Z,3.40
2018-06-11T20:16:42.138Z,3.40
2018-06-11T20:19:13.281Z,3.00
2018-06-11T20:21:44.157Z,3.23
2018-06-11T20:24:15.659Z,4.00
2018-06-11T20:26:46.519Z,2.83
2018-06-11T20:29:17.378Z,3.30
2018-06-11T20:31:48.839Z,3.57
2018-06-11T20:34:19.171Z,2.90
2018-06-11T20:36:49.882Z,2.53
2018-06-11T20:39:20.939Z,3.07
2018-06-11T20:41:52.086Z,3.07
2018-06-11T20:44:22.963Z,3.13
2018-06-11T20:46:53.920Z,2.90
2018-06-11T20:49:24.833Z,4.00
2018-06-11T20:51:55.669Z,3.53
2018-06-11T20:54:27.497Z,3.70
2018-06-11T20:56:58.995Z,3.47
2018-06-11T20:59:30.884Z,3.40
2018-06-11T21:02:02.684Z,3.90
2018-06-11T21:04:33.562Z,3.43
2018-06-11T21:07:04.503Z,3.47
2018-06-11T21:09:35.385Z,3.60
2018-06-11T21:12:06.205Z,3.20
2018-06-11T21:14:37.080Z,3.90
2018-06-11T21:17:08.022Z,3.27
2018-06-11T21:19:38.843Z,3.90
2018-06-11T21:22:09.656Z,3.47
2018-06-11T21:24:40.519Z,3.80
2018-06-11T21:27:11.420Z,3.67
2018-06-11T21:29:42.243Z,3.83
2018-06-11T21:32:13.118Z,4.60
2018-06-11T21:34:43.911Z,3.67
2018-06-11T21:37:14.798Z,3.80
2018-06-11T21:39:45.733Z,4.03
2018-06-11T21:42:16.248Z,4.55
2018-06-11T21:44:46.965Z,4.50
2018-06-11T21:47:17.820Z,4.43
2018-06-11T21:49:48.713Z,5.07
2018-06-11T21:52:19.523Z,4.83
2018-06-11T21:54:50.506Z,4.73
2018-06-11T21:57:21.308Z,4.60
2018-06-11T21:59:52.152Z,4.47
2018-06-11T22:02:22.947Z,3.70
2018-06-11T22:04:53.865Z,5.03
2018-06-11T22:07:24.590Z,4.20
2018-06-11T22:09:55.366Z,3.90
2018-06-11T22:12:26.157Z,4.90
2018-06-11T22:14:57.046Z,5.00
2018-06-11T22:17:27.853Z,4.83
2018-06-11T22:19:59.049Z,4.77
2018-06-11T22:22:29.833Z,5.40
2018-06-11T22:25:00.611Z,5.60
2018-06-11T22:27:31.407Z,5.23
2018-06-11T22:30:01.746Z,5.20
2018-06-11T22:32:32.380Z,4.70
2018-06-11T22:35:03.187Z,4.80
2018-06-11T22:37:34.034Z,5.23
2018-06-11T22:40:05.123Z,5.43
2018-06-11T22:42:36.157Z,5.37
2018-06-11T22:45:06.973Z,5.70
2018-06-11T22:47:37.684Z,6.13
2018-06-11T22:50:08.451Z,6.93
2018-06-11T22:52:39.210Z,5.00
2018-06-11T22:55:09.969Z,6.22
2018-06-11T22:57:40.700Z,5.47
2018-06-11T23:00:12.065Z,4.78
2018-06-11T23:02:43.211Z,5.83
2018-06-11T23:05:14.522Z,4.72
2018-06-11T23:07:51.210Z,4.97
2018-06-11T23:10:25.080Z,4.50
2018-06-11T23:12:55.837Z,5.30
2018-06-11T23:15:27.796Z,6.17
2018-06-11T23:18:05.358Z,6.17
2018-06-11T23:20:36.132Z,5.70
2018-06-11T23:23:06.953Z,6.78
2018-06-11T23:28:15.767Z,10.10
2018-06-11T23:30:46.515Z,9.50
2018-06-11T23:33:17.374Z,12.57
2018-06-11T23:35:48.422Z,14.73
2018-06-11T23:38:19.355Z,17.00
2018-06-11T23:40:50.109Z,18.57
2018-06-11T23:43:20.857Z,18.30
2018-06-11T23:45:51.567Z,19.30
2018-06-11T23:48:22.285Z,20.77
2018-06-11T23:50:53.237Z,20.80
2018-06-11T23:53:23.947Z,22.07
2018-06-11T23:55:54.697Z,23.37
2018-06-11T23:58:26.363Z,27.57
